Northern & Central Napa County

32 Stations

15 Minute Data | America/Los_Angeles
as of 5/8/26 3:39 PM PDT
Station Date Time Temp (°F) RH (%) Dew Pt (°F) Wind Spd (mph) Wind Dir (°) Wind Gust (mph) Latest Rain (In) Daily Rain (In) Daily Max Temp (°F) Daily Min Temp (°F)
Calistoga-North 5/8/26 1530 83.8   2.4 46   9 60.6   3.0 - - - 0.00 0.00 85.9   3.9 52.0   0.3
Stags Leap Dist (Chimney Rock) 5/8/26 1530 74.7   1.1 62   1 60.8   1.5 6.2   0.6 SE | 143 11.5   1.6 0.00 0.00 75.4   0.7 52.8   0.4
Diamond Mtn (McEachran) 5/8/26 1530 79.4   3.5 52   4 60.2   1.2 - - - - - 80.0   2.1 50.7   0.3
Diamond Mtn (Schramsberg) 5/8/26 1530 78.5   1.3 51   6 58.9   2.1 - - - 0.00 0.00 79.3   1.3 49.3   0.0
Stags Leap Dist (Silverado Vineyards) 5/8/26 1530 73.8   1.0 56   1 57.1   1.5 8.0   1.0 SSE | 155 15.6   1.9 0.00 0.00 74.6   0.5 52.1   0.2
Oak Knoll-East (Ranch 53) 5/8/26 1530 74.1   2.1 55   1 57.2   1.6 6.0   1.7 SSE | 149 14.9   5.2 0.00 0.00 75.2   1.5 52.6   0.1
Rutherford-North (Mee Ln) 5/8/26 1530 77.6   0.0 54   2 59.6   0.9 6.2   1.2 SE | 130 12.3   2.0 0.00 0.00 78.6   0.4 49.4   0.9
Frisinger Napa-NW 5/8/26 1530 76.7   0.4 52   4 58.0   2.2 6.7   0.9 SW | 214 12.9   3.7 0.00 0.00 77.5   0.2 52.8   0.2
Napa-North (Ranch 29) 5/8/26 1530 72.1   2.0 59   1 57.1   2.5 5.0   1.3 S | 183 13.3   2.9 0.00 0.00 72.6   1.9 51.8   0.1
St. Helena (NVV Office) 5/8/26 1530 80.4   0.6 - - 2.3   0.3 SE | 132 6.6   0.4 0.00 0.00 80.9   0.2 53.1   0.1
Crossroads Ranch 5/8/26 1530 76.1   0.6 55   1 58.8   1.2 9.0   1.1 SE | 136 16.1   3.5 0.00 0.00 76.4   0.8 53.0   0.1
Oakville 5/8/26 1530 75.4   0.5 55   2 57.9   1.5 8.6   1.5 SE | 128 14.0   2.1 0.00 0.00 76.3   0.0 52.6   0.1
OV561-East 5/8/26 1530 77.3   0.9 - - - - - - - 77.9   1.5 53.4   0.2
OV518-West 5/8/26 1530 76.2   0.4 - - - - - - - 77.0   0.2 53.0   0.2
Napa-NW (Ranch 54) 5/8/26 1530 77.1   1.2 53   1 58.7   1.5 1.4   0.2 SE | 137 7.0   1.9 0.00 0.00 77.7   0.9 52.8   0.1
Calistoga (Ranch 78) 5/8/26 1530 82.4   4.3 41   9 56.7   1.8 5.1   1.8 WNW | 298 9.3   1.7 0.00 0.00 83.5   3.9 52.2   0.5
Yountville-SE (Ranch 85) 5/8/26 1530 74.6   1.2 57   1 58.6   1.6 5.4   0.3 S | 176 10.9   1.2 0.00 0.00 75.0   1.6 52.8   0.1
Yountville-South (Ranch 87) 5/8/26 1530 75.5   1.5 56   0 58.6   1.5 5.2   0.7 SE | 143 10.2   0.3 0.00 0.00 76.4   1.4 52.7   0.1
Rutherford Hill Estate 5/8/26 1530 77.9   0.9 52   2 59.1   1.7 2.6   0.1 S | 188 7.9   1.3 0.00 0.00 78.5   0.8 51.4   0.4
Rutherford (STS) 5/8/26 1530 78.8 58 62.9 5.3 SE | 125 11.0 0.00 0.00 79.4 52.8
Borreo (Soda Canyon) 5/8/26 1530 72.0   0.6 59   1 56.9   1.2 4.0   0.5 SSE | 162 8.8   1.4 0.00 0.00 72.6   0.6 50.3   0.7
Oakville-NE (Ranch 88) 5/8/26 1530 77.7   0.4 50   3 57.5   2.0 6.0   0.4 S | 188 12.4   1.0 0.00 0.00 78.3   0.2 52.9   0.2
Soda Canyon 5/8/26 1530 72.7   1.2 67   1 61.0   1.6 6.7   1.4 S | 178 12.0   1.1 0.00 0.00 73.4   1.2 52.3   5.0
Silver Oak OV 5/8/26 1530 75.9   0.2 57   2 59.8   1.1 8.3   0.6 SE | 139 14.3   0.4 0.00 0.00 76.1   0.2 52.9   0.1
Tiara Fria (East St. Helena) 5/8/26 1530 77.4   0.7 52   2 58.2   1.5 4.1   1.4 SE | 130 8.0   0.4 0.00 0.00 78.0   0.5 53.0   0.3
To Kalon Remote (TKKE) 5/8/26 1530 77.9   1.3 - - - - - - - 79.3   0.4 53.0   0.2
To Kalon 5/8/26 1530 76.6   0.5 56   2 59.5   1.2 7.6   0.2 SE | 140 13.8   2.4 0.00 0.00 77.2   0.2 52.6   0.5
To Kalon Remote (TKN5) 5/8/26 1530 78.6   1.1 - - - - - - - 80.1   0.4 53.1   0.3
St. Helena-North 5/8/26 1530 78.9   3.1 49   3 57.9   1.0 6.7   5.1 SE | 146 10.5   5.3 0.00 0.00 79.5   3.2 52.8   0.2
Twomey Calistoga 5/8/26 1530 81.9   3.8 47   7 59.9   0.2 3.6   1.5 NW | 306 8.2   1.4 0.00 0.00 82.6   3.5 50.9   1.2
Wappo Hill Floor 5/8/26 1530 74.6   2.1 56   0 57.8   1.9 7.3   1.7 SSE | 155 12.0   1.1 0.00 0.00 75.7   1.2 51.4   0.1
Yountville (Ranch 67) 5/8/26 1530 73.9   1.0 55   2 56.7   2.0 8.3   1.6 SE | 142 17.0   5.7 0.00 0.00 74.9   0.5 52.1   0.2
Max     83.8 67 62.9 9.0 - 17.0 0.00 0.00 85.9 53.4
Avg     76.9 54 58.7 5.8 - 11.6 0.00 - - -
Min     72.0 41 56.7 1.4 - 6.6 0.00 0.00 72.6 49.3